createdAt,value
2018-07-02T00:00:27.082Z,69.14
2018-07-02T00:02:57.699Z,68.99
2018-07-02T00:06:40.571Z,68.96
2018-07-02T00:09:11.243Z,68.34
2018-07-02T00:11:41.885Z,67.88
2018-07-02T00:14:11.388Z,67.56
2018-07-02T00:16:41.434Z,67.86
2018-07-02T00:19:11.154Z,67.39
2018-07-02T00:21:40.845Z,66.53
2018-07-02T00:24:10.566Z,67.09
2018-07-02T00:26:40.255Z,67.44
2018-07-02T00:29:09.744Z,66.46
2018-07-02T00:31:39.596Z,66.85
2018-07-02T00:34:09.152Z,67.57
2018-07-02T00:36:39.768Z,67.98
2018-07-02T00:39:12.926Z,68.36
2018-07-02T00:41:43.710Z,67.95
2018-07-02T00:44:14.165Z,67.64
2018-07-02T00:46:43.646Z,68.87
2018-07-02T00:49:13.253Z,68.64
2018-07-02T00:51:43.426Z,68.22
2018-07-02T00:54:12.714Z,68.51
2018-07-02T00:56:42.017Z,68.88
2018-07-02T00:59:12.079Z,68.68
2018-07-02T01:01:41.612Z,69.33
2018-07-02T01:04:11.086Z,68.59
2018-07-02T01:06:40.629Z,68.80
2018-07-02T01:09:12.606Z,68.69
2018-07-02T01:11:42.843Z,68.80
2018-07-02T01:14:13.214Z,69.09
2018-07-02T01:16:42.822Z,68.34
2018-07-02T01:19:12.287Z,68.00
2018-07-02T01:21:41.817Z,67.78
2018-07-02T01:24:11.465Z,68.31
2018-07-02T01:26:41.074Z,67.82
2018-07-02T01:29:10.588Z,67.50
2018-07-02T01:31:40.114Z,67.16
2018-07-02T01:34:09.578Z,67.54
2018-07-02T01:36:39.428Z,67.84
2018-07-02T01:39:10.817Z,67.91
2018-07-02T01:41:40.319Z,68.01
2018-07-02T01:44:09.952Z,68.10
2018-07-02T01:46:39.592Z,68.32
2018-07-02T01:49:09.194Z,65.44
2018-07-02T01:51:38.665Z,65.31
2018-07-02T01:54:09.145Z,67.59
2018-07-02T01:56:38.986Z,70.95
2018-07-02T01:59:08.266Z,72.50
2018-07-02T02:01:37.855Z,71.34
2018-07-02T02:04:07.475Z,71.78
2018-07-02T02:06:37.021Z,71.97
2018-07-02T02:09:09.926Z,71.76
2018-07-02T02:11:39.730Z,71.79
2018-07-02T02:14:09.459Z,72.15
2018-07-02T02:16:38.930Z,73.26
2018-07-02T02:19:08.553Z,73.29
2018-07-02T02:21:38.014Z,73.10
2018-07-02T02:24:08.195Z,72.89
2018-07-02T02:26:38.519Z,72.48
2018-07-02T02:29:07.869Z,72.06
2018-07-02T02:31:37.490Z,71.03
2018-07-02T02:34:07.729Z,71.09
2018-07-02T02:36:37.285Z,70.88
2018-07-02T02:39:09.746Z,70.33
2018-07-02T02:41:39.469Z,71.25
2018-07-02T02:44:09.407Z,71.59
2018-07-02T02:46:39.112Z,72.53
2018-07-02T02:49:08.582Z,73.28
2018-07-02T02:51:38.163Z,73.96
2018-07-02T02:54:07.452Z,74.37
2018-07-02T02:56:36.967Z,72.59
2018-07-02T02:59:06.969Z,73.18
2018-07-02T03:01:36.785Z,73.79
2018-07-02T03:04:06.413Z,72.93
2018-07-02T03:06:35.789Z,72.62
2018-07-02T03:09:08.347Z,72.16
2018-07-02T03:11:38.036Z,70.62
2018-07-02T03:14:07.560Z,72.28
2018-07-02T03:16:37.066Z,73.83
2018-07-02T03:19:07.537Z,74.60
2018-07-02T03:21:37.047Z,75.38
2018-07-02T03:24:07.288Z,75.34
2018-07-02T03:26:37.353Z,74.97
2018-07-02T03:29:06.975Z,75.10
2018-07-02T03:31:36.584Z,74.36
2018-07-02T03:34:06.154Z,75.46
2018-07-02T03:36:35.824Z,75.40
2018-07-02T03:39:07.721Z,76.68
2018-07-02T03:41:37.796Z,77.42
2018-07-02T03:44:08.386Z,77.80
2018-07-02T03:46:37.927Z,76.74
2018-07-02T03:49:08.050Z,76.44
2018-07-02T03:51:37.485Z,75.97
2018-07-02T03:54:08.747Z,76.08
2018-07-02T03:56:38.215Z,75.71
2018-07-02T03:59:08.766Z,76.03
2018-07-02T04:01:38.454Z,75.33
2018-07-02T04:04:08.022Z,75.50
2018-07-02T04:06:37.681Z,76.49
2018-07-02T04:09:12.190Z,76.40
2018-07-02T04:11:41.978Z,76.11
2018-07-02T04:14:11.489Z,76.07
2018-07-02T04:16:40.980Z,76.49
2018-07-02T04:19:12.364Z,76.50
2018-07-02T04:21:43.061Z,77.04
2018-07-02T04:24:13.937Z,76.80
2018-07-02T04:26:43.365Z,76.26
2018-07-02T04:29:13.396Z,75.27
2018-07-02T04:31:42.950Z,75.55
2018-07-02T04:34:19.235Z,75.43
2018-07-02T04:36:50.428Z,75.25
2018-07-02T04:39:19.859Z,74.39
2018-07-02T04:41:51.429Z,74.12
2018-07-02T04:44:21.640Z,73.30
2018-07-02T04:46:51.148Z,73.08
2018-07-02T04:49:21.106Z,72.51
2018-07-02T04:51:51.572Z,71.88
2018-07-02T04:54:21.960Z,71.93
2018-07-02T04:56:51.410Z,71.00
2018-07-02T04:59:21.061Z,71.27
2018-07-02T05:01:51.002Z,72.68
2018-07-02T05:04:20.478Z,72.53
2018-07-02T05:06:50.092Z,72.84
2018-07-02T05:09:19.806Z,72.85
2018-07-02T05:11:49.320Z,72.06
2018-07-02T05:14:18.832Z,71.88
2018-07-02T05:16:48.317Z,70.73
2018-07-02T05:19:17.801Z,71.89
2018-07-02T05:21:47.356Z,68.81
2018-07-02T05:24:16.928Z,67.00
2018-07-02T05:26:46.496Z,65.06
2018-07-02T05:29:15.941Z,66.78
2018-07-02T05:31:45.420Z,66.95
2018-07-02T05:34:14.865Z,67.05
2018-07-02T05:36:44.574Z,66.89
2018-07-02T05:39:14.111Z,64.28
2018-07-02T05:41:44.007Z,64.68
2018-07-02T05:44:13.519Z,64.22
2018-07-02T05:46:43.116Z,63.15
2018-07-02T05:49:12.998Z,62.22
2018-07-02T05:51:42.569Z,62.42
2018-07-02T05:54:11.806Z,62.09
2018-07-02T05:56:41.427Z,60.86
2018-07-02T05:59:11.077Z,60.54
2018-07-02T06:01:40.725Z,61.21
2018-07-02T06:04:10.302Z,58.97
2018-07-02T06:06:39.861Z,59.09
2018-07-02T06:09:12.121Z,59.13
2018-07-02T06:11:41.814Z,56.44
2018-07-02T06:14:12.281Z,56.61
2018-07-02T06:16:42.309Z,58.21
2018-07-02T06:19:11.788Z,58.29
2018-07-02T06:21:41.310Z,54.99
2018-07-02T06:24:10.808Z,53.50
2018-07-02T06:26:40.243Z,52.89
2018-07-02T06:29:10.914Z,50.27
2018-07-02T06:31:40.468Z,50.81
2018-07-02T06:34:09.976Z,49.56
2018-07-02T06:36:39.460Z,49.94
2018-07-02T06:39:10.833Z,51.92
2018-07-02T06:41:40.320Z,47.55
2018-07-02T06:44:09.769Z,46.31
2018-07-02T06:46:39.266Z,49.32
2018-07-02T06:49:08.870Z,49.24
2018-07-02T06:51:38.371Z,47.11
2018-07-02T06:54:08.033Z,44.17
2018-07-02T06:56:37.637Z,43.05
2018-07-02T06:59:07.940Z,43.17
2018-07-02T07:01:37.615Z,42.88
2018-07-02T07:04:07.439Z,41.33
2018-07-02T07:06:37.320Z,44.02
2018-07-02T07:09:09.504Z,40.38
2018-07-02T07:11:39.428Z,39.33
2018-07-02T07:14:09.182Z,40.20
2018-07-02T07:16:39.236Z,41.15
2018-07-02T07:19:09.281Z,39.74
2018-07-02T07:21:39.106Z,39.38
2018-07-02T07:24:09.440Z,42.84
2018-07-02T07:26:41.189Z,39.15
2018-07-02T07:29:11.003Z,38.15
2018-07-02T07:31:40.926Z,38.94
2018-07-02T07:34:12.747Z,42.30
2018-07-02T07:36:42.903Z,39.15
2018-07-02T07:39:12.892Z,40.50
2018-07-02T07:41:42.999Z,39.37
2018-07-02T07:44:13.196Z,38.55
2018-07-02T07:46:43.178Z,40.60
2018-07-02T07:49:12.828Z,38.89
2018-07-02T07:51:43.008Z,36.98
2018-07-02T07:54:12.594Z,36.71
2018-07-02T07:56:42.313Z,38.39
2018-07-02T07:59:11.811Z,37.28
2018-07-02T08:01:41.650Z,37.04
2018-07-02T08:04:11.139Z,38.29
2018-07-02T08:06:41.596Z,37.47
2018-07-02T08:09:12.238Z,38.79
2018-07-02T08:11:42.288Z,37.88
2018-07-02T08:14:11.822Z,38.78
2018-07-02T08:16:42.596Z,39.86
2018-07-02T08:19:12.250Z,37.92
2018-07-02T08:21:41.921Z,38.59
2018-07-02T08:24:12.040Z,39.53
2018-07-02T08:26:42.074Z,39.08
2018-07-02T08:29:11.559Z,37.69
2018-07-02T08:31:41.238Z,37.76
2018-07-02T08:34:10.845Z,39.90
2018-07-02T08:36:40.399Z,38.65
2018-07-02T08:39:12.038Z,39.62
2018-07-02T08:41:42.234Z,40.57
2018-07-02T08:44:12.085Z,39.08
2018-07-02T08:46:41.598Z,39.52
2018-07-02T08:49:11.834Z,40.43
2018-07-02T08:51:41.048Z,39.64
2018-07-02T08:54:12.726Z,40.31
2018-07-02T08:56:42.869Z,40.27
2018-07-02T08:59:12.646Z,41.64
2018-07-02T09:01:42.499Z,42.33
2018-07-02T09:04:12.673Z,41.82
2018-07-02T09:06:43.352Z,41.06
2018-07-02T09:09:13.684Z,41.84
2018-07-02T09:11:43.130Z,41.96
2018-07-02T09:14:12.732Z,40.68
2018-07-02T09:16:42.686Z,40.97
2018-07-02T09:19:12.212Z,39.74
2018-07-02T09:21:42.020Z,35.58
2018-07-02T09:24:13.510Z,35.63
2018-07-02T09:26:43.492Z,36.00
2018-07-02T09:29:14.126Z,37.88
2018-07-02T09:31:43.846Z,38.22
2018-07-02T09:34:13.448Z,38.96
2018-07-02T09:36:43.222Z,37.82
2018-07-02T09:39:13.970Z,36.71
2018-07-02T09:41:44.711Z,36.50
2018-07-02T09:44:14.804Z,36.58
2018-07-02T09:46:47.229Z,35.77
2018-07-02T09:49:18.844Z,36.07
2018-07-02T09:51:48.477Z,35.76
2018-07-02T09:54:18.718Z,35.67
2018-07-02T09:56:48.247Z,35.19
2018-07-02T09:59:18.843Z,35.33
2018-07-02T10:01:48.460Z,35.39
2018-07-02T10:04:17.896Z,38.92
2018-07-02T10:06:47.354Z,38.09
2018-07-02T10:09:16.872Z,37.59
2018-07-02T10:11:46.355Z,34.36
2018-07-02T10:14:15.926Z,33.59
2018-07-02T10:16:45.761Z,34.94
2018-07-02T10:19:15.369Z,37.49
2018-07-02T10:21:44.617Z,37.41
2018-07-02T10:24:14.134Z,37.96
2018-07-02T10:26:43.629Z,34.17
2018-07-02T10:29:13.933Z,36.28
2018-07-02T10:31:43.871Z,34.77
2018-07-02T10:34:13.338Z,33.82
2018-07-02T10:36:42.792Z,34.20
2018-07-02T10:39:12.607Z,35.10
2018-07-02T10:41:42.069Z,35.53
2018-07-02T10:44:11.500Z,32.75
2018-07-02T10:46:41.143Z,34.41
2018-07-02T10:49:10.574Z,33.47
2018-07-02T10:51:39.817Z,33.09
2018-07-02T10:54:09.469Z,34.13
2018-07-02T10:56:38.717Z,33.59
2018-07-02T10:59:08.749Z,34.56
2018-07-02T11:01:38.256Z,37.50
2018-07-02T11:04:08.018Z,35.35
2018-07-02T11:06:37.386Z,35.12
2018-07-02T11:09:09.455Z,34.92
2018-07-02T11:11:38.896Z,34.05
2018-07-02T11:14:08.152Z,33.33
2018-07-02T11:16:39.285Z,33.85
2018-07-02T11:19:08.698Z,33.03
2018-07-02T11:21:38.219Z,31.19
2018-07-02T11:24:07.721Z,31.43
2018-07-02T11:26:37.334Z,32.54
2018-07-02T11:29:06.828Z,32.53
2018-07-02T11:31:36.320Z,31.51
2018-07-02T11:34:05.932Z,32.52
2018-07-02T11:36:35.489Z,32.96
2018-07-02T11:39:07.237Z,31.91
2018-07-02T11:41:36.624Z,33.03
2018-07-02T11:44:06.236Z,33.44
2018-07-02T11:46:36.030Z,34.69
2018-07-02T11:49:05.633Z,34.72
2018-07-02T11:51:35.506Z,32.47
2018-07-02T11:54:05.885Z,31.17
2018-07-02T11:56:35.565Z,32.28
2018-07-02T11:59:07.414Z,32.43
2018-07-02T12:01:39.637Z,33.35
2018-07-02T12:04:09.640Z,31.82
2018-07-02T12:06:39.310Z,31.92
2018-07-02T12:09:12.205Z,31.94
2018-07-02T12:11:42.635Z,32.87
2018-07-02T12:14:12.036Z,33.01
2018-07-02T12:16:42.202Z,30.19
2018-07-02T12:19:11.795Z,31.03
2018-07-02T12:21:41.579Z,29.21
2018-07-02T12:24:11.174Z,29.49
2018-07-02T12:26:41.509Z,29.31
2018-07-02T12:29:12.083Z,30.58
2018-07-02T12:31:41.659Z,31.11
2018-07-02T12:34:12.394Z,31.58
2018-07-02T12:36:41.953Z,30.01
2018-07-02T12:39:14.886Z,30.36
2018-07-02T12:41:44.621Z,26.57
2018-07-02T12:44:15.030Z,24.76
2018-07-02T12:46:46.526Z,23.10
2018-07-02T12:49:16.134Z,27.37
2018-07-02T12:51:45.614Z,26.45
2018-07-02T12:54:15.271Z,23.39
2018-07-02T12:56:44.810Z,24.99
2018-07-02T12:59:14.466Z,22.88
2018-07-02T13:01:43.967Z,22.69
2018-07-02T13:04:14.241Z,23.73
2018-07-02T13:06:45.672Z,25.08
2018-07-02T13:09:15.850Z,25.85
2018-07-02T13:11:46.780Z,23.38
2018-07-02T13:14:16.388Z,21.96
2018-07-02T13:16:45.842Z,20.49
2018-07-02T13:19:15.289Z,19.73
2018-07-02T13:21:45.164Z,20.21
2018-07-02T13:24:16.044Z,19.99
2018-07-02T13:26:45.864Z,21.86
2018-07-02T13:29:15.703Z,17.41
2018-07-02T13:31:45.202Z,17.75
2018-07-02T13:34:15.129Z,19.64
2018-07-02T13:36:45.412Z,18.17
2018-07-02T13:39:15.116Z,18.13
2018-07-02T13:41:44.698Z,18.42
2018-07-02T13:44:14.593Z,21.15
2018-07-02T13:46:45.375Z,22.05
2018-07-02T13:49:14.953Z,22.13
2018-07-02T13:51:45.019Z,22.41
2018-07-02T13:54:14.546Z,21.10
2018-07-02T13:56:44.229Z,20.58
2018-07-02T13:59:13.765Z,23.54
2018-07-02T14:01:43.521Z,22.08
2018-07-02T14:04:12.636Z,20.04
2018-07-02T14:06:42.221Z,18.53
2018-07-02T14:09:12.069Z,15.61
2018-07-02T14:11:42.228Z,17.98
2018-07-02T14:14:11.734Z,17.55
2018-07-02T14:16:41.306Z,16.71
2018-07-02T14:19:10.826Z,18.64
2018-07-02T14:21:40.537Z,17.80
2018-07-02T14:24:10.172Z,17.49
2018-07-02T14:26:39.690Z,16.87
2018-07-02T14:29:09.125Z,15.24
2018-07-02T14:31:38.590Z,15.59
2018-07-02T14:34:07.811Z,17.31
2018-07-02T14:36:37.294Z,19.84
2018-07-02T14:39:11.124Z,17.04
2018-07-02T14:41:40.708Z,18.42
2018-07-02T14:44:10.236Z,15.45
2018-07-02T14:46:39.844Z,18.02
2018-07-02T14:49:09.273Z,17.82
2018-07-02T14:51:38.718Z,16.86
2018-07-02T14:54:08.346Z,17.16
2018-07-02T14:56:37.829Z,17.94
2018-07-02T14:59:07.466Z,15.89
2018-07-02T15:01:36.934Z,14.64
2018-07-02T15:04:06.809Z,15.93
2018-07-02T15:06:36.044Z,13.92
2018-07-02T15:09:12.365Z,14.00
2018-07-02T15:11:42.768Z,16.22
2018-07-02T15:14:12.496Z,17.06
2018-07-02T15:16:42.122Z,18.24
2018-07-02T15:19:11.460Z,19.32
2018-07-02T15:21:40.910Z,19.06
2018-07-02T15:24:10.527Z,18.98
2018-07-02T15:26:40.094Z,18.00
2018-07-02T15:29:10.500Z,17.95
2018-07-02T15:31:40.265Z,16.53
2018-07-02T15:34:09.683Z,15.68
2018-07-02T15:36:40.171Z,16.60
2018-07-02T15:39:10.858Z,15.49
2018-07-02T15:41:40.405Z,14.54
2018-07-02T15:44:10.310Z,15.41
2018-07-02T15:46:39.819Z,16.19
2018-07-02T15:49:09.371Z,15.37
2018-07-02T15:51:39.341Z,17.48
2018-07-02T15:54:10.565Z,17.16
2018-07-02T15:56:41.357Z,17.18
2018-07-02T15:59:10.891Z,17.02
2018-07-02T16:01:40.371Z,16.84
2018-07-02T16:04:10.154Z,16.47
2018-07-02T16:06:39.787Z,16.18
2018-07-02T16:09:12.161Z,16.45
2018-07-02T16:11:41.677Z,17.62
2018-07-02T16:14:12.188Z,15.56
2018-07-02T16:16:42.213Z,17.40
2018-07-02T16:19:11.941Z,18.13
2018-07-02T16:21:41.458Z,17.79
2018-07-02T16:24:11.300Z,17.61
2018-07-02T16:26:40.851Z,17.20
2018-07-02T16:29:10.589Z,15.90
2018-07-02T16:31:40.067Z,16.64
2018-07-02T16:34:09.603Z,17.77
2018-07-02T16:36:39.048Z,17.95
2018-07-02T16:39:10.398Z,17.41
2018-07-02T16:41:39.987Z,16.78
2018-07-02T16:44:09.244Z,16.08
2018-07-02T16:46:38.840Z,14.87
2018-07-02T16:49:08.364Z,16.23
2018-07-02T16:51:37.871Z,15.65
2018-07-02T16:54:07.576Z,16.46
2018-07-02T16:56:37.146Z,16.00
2018-07-02T16:59:06.764Z,18.02
2018-07-02T17:01:36.440Z,18.04
2018-07-02T17:04:06.091Z,16.38
2018-07-02T17:06:35.806Z,18.49
2018-07-02T17:09:09.380Z,18.04
2018-07-02T17:11:39.611Z,19.84
2018-07-02T17:14:09.376Z,19.34
2018-07-02T17:16:39.682Z,20.45
2018-07-02T17:19:09.201Z,20.02
2018-07-02T17:21:38.805Z,21.81
2018-07-02T17:24:08.428Z,22.12
2018-07-02T17:26:38.034Z,21.56
2018-07-02T17:29:07.785Z,23.21
2018-07-02T17:31:37.587Z,24.84
2018-07-02T17:34:07.023Z,24.47
2018-07-02T17:36:36.492Z,25.35
2018-07-02T17:39:09.890Z,24.87
2018-07-02T17:41:39.644Z,24.64
2018-07-02T17:44:09.051Z,26.04
2018-07-02T17:46:39.065Z,28.05
2018-07-02T17:49:08.514Z,27.19
2018-07-02T17:51:37.982Z,27.97
2018-07-02T17:54:07.625Z,28.71
2018-07-02T17:56:37.096Z,29.32
2018-07-02T17:59:06.676Z,29.22
2018-07-02T18:01:35.854Z,30.37
2018-07-02T18:04:05.333Z,29.81
2018-07-02T18:06:34.724Z,29.37
2018-07-02T18:09:06.734Z,30.23
2018-07-02T18:11:35.951Z,28.90
2018-07-02T18:14:05.884Z,28.37
2018-07-02T18:16:35.422Z,28.05
2018-07-02T18:19:05.095Z,27.37
2018-07-02T18:21:34.549Z,30.77
2018-07-02T18:24:04.466Z,29.42
2018-07-02T18:26:33.996Z,27.33
2018-07-02T18:29:03.603Z,30.98
2018-07-02T18:31:33.170Z,35.65
2018-07-02T18:34:02.595Z,38.86
2018-07-02T18:36:32.085Z,39.40
2018-07-02T18:39:01.582Z,39.09
2018-07-02T18:41:31.072Z,38.09
2018-07-02T18:44:00.541Z,36.91
2018-07-02T18:46:29.705Z,40.01
2018-07-02T18:48:59.216Z,37.80
2018-07-02T18:51:28.688Z,39.42
2018-07-02T18:53:58.299Z,39.21
2018-07-02T18:56:27.790Z,38.30
2018-07-02T18:58:57.633Z,38.79
2018-07-02T19:01:27.170Z,38.26
2018-07-02T19:03:56.810Z,40.75
2018-07-02T19:06:26.089Z,40.56
2018-07-02T19:08:55.766Z,40.36
2018-07-02T19:11:25.357Z,39.96
2018-07-02T19:13:54.976Z,42.85
2018-07-02T19:16:25.109Z,39.43
2018-07-02T19:18:54.808Z,42.48
2018-07-02T19:21:24.646Z,39.71
2018-07-02T19:23:54.487Z,39.85
2018-07-02T19:26:24.161Z,40.20
2018-07-02T19:28:53.960Z,40.62
2018-07-02T19:31:23.602Z,44.09
2018-07-02T19:33:53.369Z,41.81
2018-07-02T19:36:24.171Z,41.72
2018-07-02T19:38:54.535Z,41.44
2018-07-02T19:41:24.381Z,42.93
2018-07-02T19:43:54.077Z,42.39
2018-07-02T19:46:24.565Z,42.67
2018-07-02T19:48:54.046Z,44.04
2018-07-02T19:51:23.641Z,46.61
2018-07-02T19:53:53.144Z,48.12
2018-07-02T19:56:22.881Z,45.04
2018-07-02T19:58:52.740Z,49.32
2018-07-02T20:01:22.785Z,47.41
2018-07-02T20:03:52.806Z,45.87
2018-07-02T20:06:23.197Z,46.37
2018-07-02T20:08:53.270Z,46.55
2018-07-02T20:11:22.830Z,45.75
2018-07-02T20:13:54.206Z,46.59
2018-07-02T20:16:23.717Z,46.21
2018-07-02T20:18:54.487Z,47.21
2018-07-02T20:21:23.756Z,46.77
2018-07-02T20:23:53.800Z,47.38
2018-07-02T20:26:23.854Z,47.40
2018-07-02T20:28:53.920Z,47.28
2018-07-02T20:31:23.522Z,48.05
2018-07-02T20:33:53.036Z,47.27
2018-07-02T20:36:22.871Z,48.12
2018-07-02T20:38:54.008Z,47.94
2018-07-02T20:41:23.600Z,47.70
2018-07-02T20:43:53.556Z,46.66
2018-07-02T20:46:23.032Z,47.24
2018-07-02T20:48:53.284Z,48.15
2018-07-02T20:51:24.743Z,48.24
2018-07-02T20:53:54.617Z,48.30
2018-07-02T20:56:27.102Z,48.59
2018-07-02T20:58:56.978Z,49.00
2018-07-02T21:01:27.739Z,49.41
2018-07-02T21:03:57.361Z,49.17
2018-07-02T21:06:27.237Z,51.59
2018-07-02T21:08:56.982Z,49.57
2018-07-02T21:11:27.714Z,50.13
2018-07-02T21:13:57.510Z,49.42
2018-07-02T21:16:27.661Z,50.64
2018-07-02T21:18:58.445Z,50.62
2018-07-02T21:21:29.457Z,51.36
2018-07-02T21:23:59.575Z,51.73
2018-07-02T21:26:29.779Z,50.92
2018-07-02T21:28:59.250Z,52.37
2018-07-02T21:31:28.732Z,52.30
2018-07-02T21:33:58.245Z,54.82
2018-07-02T21:36:27.816Z,53.15
2018-07-02T21:38:57.069Z,52.72
2018-07-02T21:41:26.526Z,51.86
2018-07-02T21:43:56.632Z,52.35
2018-07-02T21:46:26.087Z,52.41
2018-07-02T21:48:56.521Z,52.92
2018-07-02T21:51:25.972Z,52.79
2018-07-02T21:53:55.545Z,52.53
2018-07-02T21:56:25.401Z,53.26
2018-07-02T22:01:29.853Z,52.50
2018-07-02T22:03:59.337Z,53.08
2018-07-02T22:06:28.903Z,55.58
2018-07-02T22:08:58.746Z,55.63
2018-07-02T22:11:28.237Z,55.32
2018-07-02T22:13:58.069Z,54.78
2018-07-02T22:16:27.570Z,55.16
2018-07-02T22:18:57.117Z,55.63
2018-07-02T22:21:26.323Z,56.66
2018-07-02T22:23:55.835Z,57.83
2018-07-02T22:26:25.276Z,57.30
2018-07-02T22:28:54.826Z,58.40
2018-07-02T22:31:23.989Z,57.39
2018-07-02T22:33:53.553Z,58.03
2018-07-02T22:36:23.077Z,58.10
2018-07-02T22:38:52.603Z,59.20
2018-07-02T22:41:22.306Z,59.27
2018-07-02T22:43:51.804Z,60.40
2018-07-02T22:46:21.262Z,60.36
2018-07-02T22:48:51.701Z,60.82
2018-07-02T22:51:20.946Z,61.68
2018-07-02T22:53:50.446Z,62.35
2018-07-02T22:56:19.880Z,62.58
2018-07-02T22:58:49.324Z,63.62
2018-07-02T23:01:18.537Z,63.65
2018-07-02T23:03:48.489Z,64.84
2018-07-02T23:06:18.070Z,64.81
2018-07-02T23:08:47.524Z,64.75
2018-07-02T23:11:17.051Z,63.89
2018-07-02T23:13:46.559Z,64.90
2018-07-02T23:16:16.067Z,65.86
2018-07-02T23:18:45.224Z,65.35
2018-07-02T23:21:14.724Z,65.60
2018-07-02T23:23:44.302Z,66.25
2018-07-02T23:26:13.716Z,65.99
2018-07-02T23:28:43.234Z,67.31
2018-07-02T23:31:12.771Z,66.81
2018-07-02T23:33:42.234Z,66.95
2018-07-02T23:36:11.888Z,67.21
2018-07-02T23:38:41.368Z,67.50
2018-07-02T23:41:10.874Z,66.90
2018-07-02T23:43:40.376Z,67.76
2018-07-02T23:46:09.996Z,68.74
2018-07-02T23:48:39.737Z,68.56
2018-07-02T23:51:09.228Z,68.55
2018-07-02T23:53:38.679Z,69.81
2018-07-02T23:56:08.153Z,69.25
2018-07-02T23:58:37.597Z,67.83
